Terminal Aerodrome Forecast
Issued by NWS

Home | Current Version | Previous Version | Text Only | Print | Product List | Glossary On
Versions: 1 2 3 4 5 6 7 8 9 10 11 12 13 14 15 16 17 18 19 20 21 22 23
311
FTUS41 KPHI 211137
TAFPNE
TAF
KPNE 211137Z 2112/2212 00000KT 4SM BR OVC006
      TEMPO 2112/2113 1SM BR OVC002
     FM211500 23004KT 3SM BR BKN005 OVC015
     FM211700 24004KT P6SM BKN015
     FM220100 00000KT 4SM BR OVC002
     FM220600 00000KT 2SM BR OVC002=

USA.gov is the U.S. government's official web portal to all federal, state and local government web resources and services.